Terminal Aerodrome Forecast
Issued by NWS Buffalo, NY

Home | Current Version | Previous Version | Text Only | Print | Product List | Glossary On
Versions: 1 2 3 4 5 6 7 8 9 10 11 12 13 14 15 16 17 18 19 20 21 22 23 24
400
FTUS41 KBUF 241135
TAFROC
TAF
KROC 241135Z 2412/2512 07007KT 6SM -SHRA VCTS OVC020CB
     FM241500 08008KT P6SM VCSH OVC015
     FM241700 15008KT P6SM SCT040 BKN150
     FM250700 18013G19KT P6SM BKN200=

USA.gov is the U.S. government's official web portal to all federal, state and local government web resources and services.